หน้าหลัก
METAR-TAF:

METAR-TAF

ท่าอากาศยาน :

Cayo Coco, คิวบา

ละติจูด: 22-27-40N, ลองจิจูด: 078-19-42W, ความสูง: 4 ม.

การสังเกตสภาพอากาศปัจจุบัน

รายงานได้ทำขึ้นเมื่อ 1 ชั่วโมงและ 3 นาทีที่แล้ว ณ เวลา 22:50 UTC
ลม 8 นอตจากตะวันออก/ตะวันออกเฉียงเหนือ, แปรผันระหว่างตะวันออกเฉียงเหนือ และตะวันออก
อุณหภูมิ 29°C
ความชื้น 70%
ความกดอากาศ 1012 hPa
ทัศนวิสัย: 9000 ม.
มีเมฆน้อยที่ความสูง 2000 ฟุต

METAR: MUCC 242250Z 07008KT 040V100 9000 FEW020 29/23 Q1012

เวลา: 19:53 (23:53 UTC)

การพยากรณ์

รายงานได้ทำขึ้นเมื่อ 53 นาทีที่แล้ว ณ เวลา 23:00 UTC
การพยากรณ์มีผลตั้งแต่วันที่ 25 ณ เวลา 00 UTC จนถึงวันที่ 25 ณ เวลา 24 UTC
ลม 8 นอตจากตะวันออกเฉียงเหนือ
ทัศนวิสัย: 9000 ม.
มีเมฆน้อยที่ความสูง 2000 ฟุต
กำลังกลายเป็น
ตั้งแต่วันที่ 25 ณ เวลา 02 UTC จนถึงวันที่ 25 ณ เวลา 04 UTC
ลม 5 นอตจากตะวันออก
กำลังกลายเป็น
ตั้งแต่วันที่ 25 ณ เวลา 13 UTC จนถึงวันที่ 25 ณ เวลา 14 UTC
ลม 10 นอตจากตะวันออก/ตะวันออกเฉียงเหนือ

TAF: MUCC 242300Z 2500/2524 05008KT 9000 FEW020 BECMG 2502/2504 10005KT BECMG 2513/2514 06010KT

สังเกตการณ์สภาพอากาศและพยากรณ์อากาศของสนามบินมากกว่า 4000 แห่ง (รายงาน METAR และ TAF).

สถานีที่ดูได้จะแสดงไว้ด้วยจุดสีเหลืองและสีแดงบนแผนที่.

เลื่อนเมาส์ไปเหนือจุดเพื่อดูชื่อสถานี.

แล้วคลิกเพื่อดูสังเกตการณ์และการพยากรณ์สภาพอากาศ.

ในการเปลี่ยนแผนที่: คลิกที่ปุ่มสีเขียวที่มีกากบาทสีดำเพื่อซูมเข้า; ที่ปุ่มสีเขียวที่มีขีดเพื่อซูมออก; หรือที่ลูกศรสีเขียวเพื่อไปยังแผนที่ที่อยู่ติดกัน.


METAR-TAF: